Time;durP1;ratioP1;P1;durP2;ratioP2;P2;SDS_P1;SDS_P2;PMS_P1;PMS_P2;Temp;Humidity;BMP_temperature;BMP_pressure;BME280_temperature;BME280_humidity;BME280_pressure;Samples;Min_cycle;Max_cycle;Signal;HPM_P1;HPM_P2
2021/05/11 00:01:39;;;;;;;9.40;3.90;;;;;;;9.92;46.24;101073.19;5087006;28;20044;-76
2021/05/11 00:04:05;;;;;;;10.05;4.20;;;;;;;9.85;46.66;101073.19;5088926;28;20480;-76
2021/05/11 00:06:31;;;;;;;11.98;3.97;;;;;;;9.65;46.45;101035.13;5088276;28;20089;-77
2021/05/11 00:08:57;;;;;;;10.45;3.65;;;;;;;9.70;46.51;101041.31;5086625;28;20464;-75
2021/05/11 00:11:23;;;;;;;8.27;4.05;;;;;;;9.67;46.63;101070.44;5069268;28;20096;-76
2021/05/11 00:13:50;;;;;;;10.30;4.30;;;;;;;9.50;46.57;101044.78;5087774;28;20508;-76
2021/05/11 00:16:16;;;;;;;8.52;4.13;;;;;;;9.55;47.15;101080.09;5053007;28;20085;-75
2021/05/11 00:18:42;;;;;;;9.13;4.68;;;;;;;9.50;47.01;101051.84;5067726;28;20480;-76
2021/05/11 00:21:08;;;;;;;11.68;4.00;;;;;;;9.63;46.65;101087.19;5087109;28;20054;-76
2021/05/11 00:23:34;;;;;;;11.55;3.92;;;;;;;9.49;46.94;101053.59;5087303;28;20059;-76
2021/05/11 00:26:00;;;;;;;9.68;4.30;;;;;;;9.65;47.43;101078.38;5086937;28;20035;-78
2021/05/11 00:28:25;;;;;;;11.13;4.50;;;;;;;9.44;47.41;101052.69;5088720;28;20036;-76
2021/05/11 00:30:53;;;;;;;9.25;3.65;;;;;;;9.61;47.28;101084.53;5088277;28;20047;-77
2021/05/11 00:33:19;;;;;;;11.35;4.55;;;;;;;9.58;47.35;101077.47;5088522;28;20496;-77
2021/05/11 00:35:45;;;;;;;10.20;4.05;;;;;;;9.55;47.14;101074.78;5068564;28;20050;-76
2021/05/11 00:38:11;;;;;;;10.05;5.00;;;;;;;9.34;47.49;101060.59;5070231;28;20048;-77
2021/05/11 00:40:37;;;;;;;10.05;4.43;;;;;;;9.27;47.91;101038.47;5088689;28;20055;-77
2021/05/11 00:43:02;;;;;;;6.72;4.07;;;;;;;9.48;47.71;101080.06;5069188;28;20055;-76
2021/05/11 00:45:28;;;;;;;5.88;3.88;;;;;;;9.45;47.54;101065.06;5086876;28;20575;-76
2021/05/11 00:47:54;;;;;;;24.60;4.07;;;;;;;9.49;47.44;101072.13;5088432;28;20077;-77
2021/05/11 00:50:20;;;;;;;15.40;3.90;;;;;;;9.54;47.73;101070.38;5088112;28;20036;-76
2021/05/11 00:52:46;;;;;;;7.85;4.00;;;;;;;9.51;47.26;101080.09;5086095;28;20379;-77
2021/05/11 00:55:14;;;;;;;10.63;4.20;;;;;;;9.50;47.99;101071.25;5069962;28;20692;-75
2021/05/11 00:57:40;;;;;;;16.85;4.45;;;;;;;9.47;47.59;101076.53;5069578;28;20044;-76
2021/05/11 01:00:09;;;;;;;8.55;4.32;;;;;;;9.38;47.59;101050.00;5070110;28;20052;-73
2021/05/11 01:02:35;;;;;;;10.77;3.63;;;;;;;9.48;47.38;101088.00;5051924;28;20177;-72
2021/05/11 01:05:02;;;;;;;11.20;4.00;;;;;;;9.40;47.73;101080.03;5087908;28;20047;-73
2021/05/11 01:07:29;;;;;;;10.13;4.15;;;;;;;9.25;48.00;101090.53;5069862;28;20072;-76
2021/05/11 01:09:57;;;;;;;14.48;4.35;;;;;;;9.28;47.56;101068.47;5085917;28;20059;-76
2021/05/11 01:12:22;;;;;;;9.07;3.70;;;;;;;9.37;47.71;101087.94;5087727;28;20094;-76
2021/05/11 01:14:48;;;;;;;15.85;3.75;;;;;;;9.36;48.11;101096.78;5087628;28;20043;-77
2021/05/11 01:17:23;;;;;;;5.97;3.38;;;;;;;9.39;47.57;101107.34;5087717;28;20162;-77
2021/05/11 01:19:51;;;;;;;9.35;4.55;;;;;;;9.31;48.09;101101.13;5087748;28;20044;-76
2021/05/11 01:25:07;;;;;;;12.77;4.28;;;;;;;9.28;47.96;101116.13;5066574;28;20146;-75
2021/05/11 01:48:50;;;;;;;13.65;5.07;;;;;;;8.97;48.90;101085.03;5065435;28;20051;-78
2021/05/11 01:51:44;;;;;;;10.02;5.30;;;;;;;9.17;48.70;101124.00;5066359;28;20040;-76
2021/05/11 02:23:54;;;;;;;13.55;4.70;;;;;;;9.06;49.28;101130.09;5023407;28;20132;-75
2021/05/11 02:26:20;;;;;;;8.63;4.30;;;;;;;9.27;49.30;101133.75;5008307;28;20053;-75
2021/05/11 02:28:47;;;;;;;8.52;4.43;;;;;;;9.28;48.83;101127.59;5025750;28;20064;-76
2021/05/11 02:31:12;;;;;;;7.68;3.55;;;;;;;9.10;49.03;101101.00;5010044;28;20563;-75
2021/05/11 02:33:38;;;;;;;9.73;4.20;;;;;;;9.33;49.27;101114.38;5011863;28;20049;-75
2021/05/11 02:36:04;;;;;;;7.50;3.85;;;;;;;9.33;49.28;101109.09;5028165;28;20054;-75
2021/05/11 02:38:30;;;;;;;12.10;4.30;;;;;;;9.57;48.80;101132.19;5011538;28;20068;-77
2021/05/11 02:40:56;;;;;;;8.65;3.70;;;;;;;9.65;48.18;101128.69;5009569;28;20037;-77
2021/05/11 02:43:27;;;;;;;10.85;4.13;;;;;;;9.58;48.78;101121.63;5028266;28;20049;-75
2021/05/11 02:45:55;;;;;;;9.40;3.80;;;;;;;9.67;48.98;101134.00;4995549;28;20099;-77
2021/05/11 02:48:20;;;;;;;10.52;3.65;;;;;;;9.67;48.29;101116.34;5009430;28;20107;-79
2021/05/11 02:50:46;;;;;;;8.55;3.40;;;;;;;9.61;48.44;101107.50;5061767;28;20520;-77
2021/05/11 02:53:12;;;;;;;14.18;4.45;;;;;;;9.75;48.42;101113.72;5070330;28;20049;-77
2021/05/11 02:55:38;;;;;;;11.35;3.95;;;;;;;9.83;48.62;101120.84;5052290;28;20040;-76
2021/05/11 02:58:03;;;;;;;8.80;3.90;;;;;;;9.86;48.47;101110.28;5068309;28;20396;-76
2021/05/11 03:00:29;;;;;;;10.80;3.58;;;;;;;9.87;48.63;101090.84;5070626;28;20493;-76
2021/05/11 03:02:56;;;;;;;6.35;3.70;;;;;;;9.92;49.16;101096.16;5070255;28;20392;-77
2021/05/11 03:05:23;;;;;;;7.63;3.55;;;;;;;10.14;48.51;101122.78;5067286;28;20041;-81
2021/05/11 03:07:49;;;;;;;7.75;3.92;;;;;;;10.15;48.46;101107.75;5068585;28;20362;-78
2021/05/11 03:10:18;;;;;;;5.35;3.45;;;;;;;10.19;48.71;101121.03;5070275;28;20044;-77
2021/05/11 03:12:44;;;;;;;11.90;3.50;;;;;;;10.22;48.79;101110.44;5035839;28;20130;-78
2021/05/11 03:15:11;;;;;;;10.40;3.88;;;;;;;10.31;48.65;101112.19;5068261;28;20048;-76
2021/05/11 03:17:38;;;;;;;8.18;3.45;;;;;;;10.39;48.64;101110.44;5068787;28;20127;-77
2021/05/11 03:20:05;;;;;;;6.13;3.55;;;;;;;10.52;49.02;101117.56;5052184;28;20040;-77
2021/05/11 03:22:32;;;;;;;13.90;3.42;;;;;;;10.65;48.89;101122.00;5077504;28;20077;-77
2021/05/11 03:24:59;;;;;;;6.82;3.80;;;;;;;10.68;49.82;101125.53;5054780;28;20519;-77
2021/05/11 03:27:25;;;;;;;7.07;3.22;;;;;;;10.72;48.85;101124.66;5071672;28;20523;-78
2021/05/11 03:29:51;;;;;;;6.30;3.38;;;;;;;10.69;49.73;101108.75;5089786;28;20135;-76
2021/05/11 03:32:16;;;;;;;9.68;3.22;;;;;;;10.88;49.79;101131.75;5087537;28;20056;-78
2021/05/11 03:34:42;;;;;;;5.35;3.05;;;;;;;10.94;49.88;101139.72;5089329;28;20072;-77
2021/05/11 03:37:09;;;;;;;7.63;3.40;;;;;;;10.91;49.23;101120.28;5071674;28;20476;-77
2021/05/11 03:39:39;;;;;;;6.63;3.22;;;;;;;10.95;49.61;101119.38;5053982;28;20142;-79
2021/05/11 03:42:30;;;;;;;6.90;3.28;;;;;;;11.10;49.10;101132.63;5054717;28;20348;-77
2021/05/11 03:44:59;;;;;;;6.60;2.95;;;;;;;11.22;49.19;101136.16;5069948;28;20040;-79
2021/05/11 03:47:27;;;;;;;7.97;3.15;;;;;;;11.22;48.79;101136.16;5053660;28;20048;-77
2021/05/11 03:49:52;;;;;;;14.02;2.88;;;;;;;11.26;49.60;101127.31;5087450;28;20043;-78
2021/05/11 03:52:18;;;;;;;12.88;3.13;;;;;;;11.32;49.99;101143.22;5069246;28;20036;-76
2021/05/11 03:54:44;;;;;;;7.13;2.88;;;;;;;11.43;49.97;101151.19;5066963;28;20039;-78
2021/05/11 03:57:11;;;;;;;15.55;3.78;;;;;;;11.42;49.45;101152.97;5086870;28;20048;-76
2021/05/11 03:59:37;;;;;;;5.80;3.20;;;;;;;11.42;49.80;101139.69;5087116;28;20047;-77
2021/05/11 04:02:04;;;;;;;10.80;3.10;;;;;;;11.55;49.71;101137.91;5085370;28;20036;-80
2021/05/11 04:04:31;;;;;;;8.82;4.38;;;;;;;11.58;49.70;101129.91;5088843;28;20276;-77
2021/05/11 04:06:57;;;;;;;7.65;3.35;;;;;;;11.77;49.99;101144.94;5070988;28;20048;-77
2021/05/11 04:16:44;;;;;;;9.73;3.35;;;;;;;12.01;49.81;101152.84;5068734;28;20046;-78
2021/05/11 04:19:10;;;;;;;8.60;3.10;;;;;;;12.00;49.50;101157.28;5085522;28;20105;-79
2021/05/11 04:21:37;;;;;;;5.95;3.33;;;;;;;12.12;49.78;101146.59;5086008;28;20455;-78
2021/05/11 04:24:04;;;;;;;15.25;3.65;;;;;;;12.04;49.40;101128.91;5035957;28;20512;-76
2021/05/11 04:26:30;;;;;;;15.63;4.53;;;;;;;12.08;49.43;101128.91;5088693;28;20040;-77
2021/05/11 04:28:56;;;;;;;11.60;3.15;;;;;;;12.25;48.92;101142.09;5035424;28;20048;-76
2021/05/11 04:31:22;;;;;;;11.75;3.83;;;;;;;12.33;49.82;101134.94;5088207;28;20051;-76
2021/05/11 04:33:48;;;;;;;8.65;3.05;;;;;;;12.48;49.59;101149.06;5088752;28;20039;-76
2021/05/11 04:36:14;;;;;;;14.60;3.70;;;;;;;12.48;48.86;101126.88;5088265;28;20098;-76
2021/05/11 04:38:43;;;;;;;5.40;2.75;;;;;;;12.69;49.10;101140.06;5088343;28;20062;-76
2021/05/11 04:41:10;;;;;;;13.63;3.20;;;;;;;12.77;49.01;101148.88;5070445;28;20044;-76
2021/05/11 04:43:36;;;;;;;5.47;2.65;;;;;;;12.85;49.00;101145.25;5053248;28;20058;-77
2021/05/11 04:48:47;;;;;;;5.22;2.13;;;;;;;13.00;48.43;101141.63;5069424;28;20058;-76
2021/05/11 04:51:14;;;;;;;9.25;2.05;;;;;;;13.11;47.94;101135.34;5051686;28;20507;-81
2021/05/11 04:53:40;;;;;;;7.22;2.30;;;;;;;13.14;47.38;101129.09;5087212;28;20032;-77
2021/05/11 04:56:06;;;;;;;4.40;1.80;;;;;;;13.20;46.81;101126.38;5088003;28;20184;-77
2021/05/11 04:58:34;;;;;;;9.00;2.30;;;;;;;13.33;47.05;101138.66;5069578;28;20062;-75
2021/05/11 05:01:02;;;;;;;6.13;1.60;;;;;;;13.01;45.61;101075.06;5068056;28;20052;-76
2021/05/11 05:03:28;;;;;;;9.98;2.10;;;;;;;13.45;45.86;101134.13;5053250;28;20408;-77
2021/05/11 05:05:54;;;;;;;7.53;2.17;;;;;;;13.45;45.22;101130.56;5069798;28;20074;-75
2021/05/11 05:08:21;;;;;;;19.55;3.67;;;;;;;13.57;45.57;101135.78;5086877;28;20504;-80
2021/05/11 05:10:47;;;;;;;11.25;1.75;;;;;;;13.49;44.81;101119.00;5051671;28;20040;-78
2021/05/11 05:13:25;;;;;;;4.35;1.60;;;;;;;13.44;45.11;101108.38;5069531;28;20089;-79
2021/05/11 05:15:55;;;;;;;10.70;1.80;;;;;;;13.66;44.39;101125.88;5086566;28;20048;-81
2021/05/11 05:18:21;;;;;;;6.10;1.52;;;;;;;13.66;44.33;101109.88;5069272;28;20500;-77
2021/05/11 05:20:50;;;;;;;2.95;1.65;;;;;;;13.78;44.49;101122.22;5087920;28;20047;-77
2021/05/11 05:23:17;;;;;;;2.17;1.33;;;;;;;13.79;43.82;101119.53;5052200;28;20419;-79
2021/05/11 05:26:02;;;;;;;3.03;1.55;;;;;;;13.85;44.55;101111.47;5068235;28;20084;-78
2021/05/11 05:28:28;;;;;;;3.25;1.92;;;;;;;13.97;43.83;101117.53;5069597;28;20127;-77
2021/05/11 05:30:54;;;;;;;4.30;1.65;;;;;;;14.01;44.43;101116.59;5085390;28;20135;-79
2021/05/11 05:33:32;;;;;;;2.55;1.50;;;;;;;14.00;43.88;101101.53;5087271;28;20047;-77
2021/05/11 05:35:58;;;;;;;5.85;1.65;;;;;;;14.06;43.58;101104.97;5087308;28;20122;-79
2021/05/11 05:38:24;;;;;;;6.03;2.10;;;;;;;14.25;43.68;101127.00;5066983;28;20372;-79
2021/05/11 05:40:56;;;;;;;11.63;1.95;;;;;;;14.29;43.29;101120.72;5069724;28;20150;-77
2021/05/11 05:43:22;;;;;;;4.85;1.60;;;;;;;14.31;42.16;101111.78;5035479;28;20558;-78
2021/05/11 05:45:51;;;;;;;2.60;1.48;;;;;;;14.36;41.54;101125.06;5067637;28;20044;-81
2021/05/11 05:48:17;;;;;;;5.43;1.90;;;;;;;14.41;41.39;101117.88;5069222;28;20386;-75
2021/05/11 05:50:43;;;;;;;13.18;1.63;;;;;;;14.42;41.33;101114.28;5086874;28;20502;-75
2021/05/11 05:53:13;;;;;;;6.82;1.88;;;;;;;14.50;40.75;101113.28;5087047;28;20131;-75
2021/05/11 05:55:41;;;;;;;4.88;1.70;;;;;;;14.59;40.87;101122.97;5051537;28;20132;-77
2021/05/11 05:58:07;;;;;;;9.60;1.58;;;;;;;14.49;41.00;101090.19;5086940;28;20040;-75
2021/05/11 06:00:33;;;;;;;1.60;1.15;;;;;;;14.63;41.53;101098.84;5086952;28;20044;-77
2021/05/11 06:03:07;;;;;;;8.57;1.90;;;;;;;14.69;41.11;101097.88;5085310;28;20112;-79
2021/05/11 06:05:33;;;;;;;5.68;1.40;;;;;;;14.82;41.26;101105.69;5090895;28;20044;-78
2021/05/11 06:07:59;;;;;;;4.28;1.60;;;;;;;14.90;41.17;101114.44;5090760;28;20051;-76
2021/05/11 06:10:29;;;;;;;8.68;2.17;;;;;;;14.89;40.57;101102.00;5090255;28;20040;-81
2021/05/11 06:13:16;;;;;;;10.02;1.85;;;;;;;14.87;40.55;101095.78;5056282;28;20434;-78
2021/05/11 06:18:26;;;;;;;6.20;1.58;;;;;;;15.17;40.61;101105.09;5090524;28;20048;-78
2021/05/11 06:20:52;;;;;;;6.25;1.73;;;;;;;15.15;40.82;101098.91;5090411;28;20113;-78
2021/05/11 06:23:18;;;;;;;6.40;1.70;;;;;;;15.13;40.54;101100.69;5088658;28;20147;-79
2021/05/11 06:25:45;;;;;;;8.75;1.80;;;;;;;15.27;40.36;101112.91;5090350;28;20131;-78
2021/05/11 06:28:12;;;;;;;7.18;1.90;;;;;;;15.22;40.02;101104.09;5072495;28;20097;-77
2021/05/11 06:30:39;;;;;;;4.20;1.80;;;;;;;15.39;40.38;101109.19;5072351;28;20055;-78
2021/05/11 06:33:06;;;;;;;7.00;1.80;;;;;;;15.46;39.96;101118.88;5088709;28;20051;-78
2021/05/11 06:35:33;;;;;;;4.25;1.45;;;;;;;15.44;39.40;101105.53;5055200;28;20504;-77
2021/05/11 06:38:00;;;;;;;7.30;1.42;;;;;;;15.63;39.60;101125.63;5090264;28;20047;-78
2021/05/11 06:40:29;;;;;;;5.15;1.50;;;;;;;15.76;39.75;101108.47;5070382;28;20048;-77
2021/05/11 06:42:56;;;;;;;6.15;2.83;;;;;;;15.63;39.49;101082.00;5090032;28;20486;-78
2021/05/11 06:48:16;;;;;;;5.38;1.65;;;;;;;16.01;38.98;101114.19;5089097;28;20464;-78
2021/05/11 06:53:50;;;;;;;12.75;1.67;;;;;;;16.26;37.92;101097.56;5028049;28;20079;-77
2021/05/11 06:56:18;;;;;;;2.55;1.42;;;;;;;16.49;38.04;101108.69;5011475;28;20049;-77
2021/05/11 06:58:44;;;;;;;4.10;1.42;;;;;;;16.67;37.33;101091.31;5025383;28;20050;-78
2021/05/11 07:01:09;;;;;;;15.32;1.70;;;;;;;17.05;36.92;101100.19;5027203;28;20057;-78
2021/05/11 07:03:35;;;;;;;9.80;1.50;;;;;;;17.53;36.31;101101.59;5027550;28;20064;-77
2021/05/11 07:06:02;;;;;;;11.48;1.50;;;;;;;17.92;35.08;101081.72;5009727;28;20064;-79
2021/05/11 07:08:49;;;;;;;8.38;2.17;;;;;;;18.22;34.05;101089.78;5010248;28;20076;-78
2021/05/11 07:13:49;;;;;;;4.32;1.33;;;;;;;18.89;33.24;101058.09;5025797;28;20155;-77
2021/05/11 07:16:14;;;;;;;8.45;1.40;;;;;;;19.23;31.52;101088.31;5010137;28;20041;-77
2021/05/11 07:18:40;;;;;;;6.13;1.23;;;;;;;19.68;31.10;101088.50;5027436;28;20512;-75
2021/05/11 07:21:06;;;;;;;5.53;1.30;;;;;;;19.87;30.50;101087.81;5008619;28;20064;-78
2021/05/11 07:23:32;;;;;;;3.35;1.20;;;;;;;19.97;30.31;101074.88;5010682;28;20049;-79
2021/05/11 07:31:16;;;;;;;6.72;1.52;;;;;;;20.81;30.03;101079.63;5089340;28;20044;-74
2021/05/11 07:33:47;;;;;;;6.45;1.90;;;;;;;21.34;29.73;101075.56;5054695;28;20056;-79
2021/05/11 07:36:14;;;;;;;3.67;1.48;;;;;;;21.68;29.11;101073.16;5069621;28;20137;-77
2021/05/11 07:38:40;;;;;;;6.82;1.50;;;;;;;22.19;28.60;101076.19;5071704;28;20043;-79
2021/05/11 07:41:08;;;;;;;4.47;1.27;;;;;;;22.43;27.75;101080.47;5055107;28;20420;-78
2021/05/11 07:43:37;;;;;;;6.40;1.30;;;;;;;22.67;26.54;101064.91;5087485;28;20044;-80
2021/05/11 08:04:34;;;;;;;6.78;1.63;;;;;;;26.77;22.06;101090.88;5073865;28;20036;-77
2021/05/11 08:15:26;;;;;;;6.65;1.23;;;;;;;30.18;18.61;101086.72;5072083;28;20108;-78
2021/05/11 08:28:25;;;;;;;4.30;1.20;;;;;;;32.53;17.06;101079.16;5063898;28;20095;-70
2021/05/11 08:30:51;;;;;;;6.95;1.30;;;;;;;32.68;16.75;101067.69;5066359;28;20463;-67
2021/05/11 08:33:17;;;;;;;12.48;1.80;;;;;;;32.75;16.85;101077.06;5065267;28;20051;-66
2021/05/11 08:35:43;;;;;;;9.57;1.20;;;;;;;33.14;16.23;101076.19;5048741;28;20072;-67
2021/05/11 08:38:09;;;;;;;1.95;1.15;;;;;;;32.55;16.41;101042.31;5063533;28;20522;-66
2021/05/11 08:40:35;;;;;;;2.85;1.42;;;;;;;33.83;15.87;101065.09;5066796;28;20040;-68
2021/05/11 08:43:07;;;;;;;3.00;1.00;;;;;;;35.05;15.20;101064.78;5067078;28;20036;-66
2021/05/11 08:45:34;;;;;;;4.65;1.40;;;;;;;35.72;14.21;101066.00;5064097;28;20127;-70
2021/05/11 08:48:00;;;;;;;4.15;1.10;;;;;;;35.75;14.12;101060.19;5067121;28;20040;-66
2021/05/11 08:50:37;;;;;;;2.83;1.05;;;;;;;35.69;14.14;101057.19;5065253;28;20071;-66
2021/05/11 08:53:18;;;;;;;5.00;1.13;;;;;;;36.10;14.29;101040.78;5065543;28;20080;-68
2021/05/11 09:04:40;;;;;;;2.92;1.23;;;;;;;36.86;13.57;101047.28;5065535;28;20041;-65
2021/05/11 09:27:30;;;;;;;7.38;1.15;;;;;;;38.90;13.06;101044.91;4985683;28;20061;-70
2021/05/11 10:00:57;;;;;;;4.72;1.90;;;;;;;39.02;12.81;101016.59;5068120;28;20040;-65
2021/05/11 10:40:25;;;;;;;3.65;1.58;;;;;;;38.65;13.57;101012.78;5070696;28;20056;-68
2021/05/11 10:48:23;;;;;;;8.90;2.55;;;;;;;39.57;13.33;101013.63;5052130;28;20175;-67
2021/05/11 10:50:59;;;;;;;;;;;;;;;38.99;13.74;101014.19;5066537;28;20496;-66
2021/05/11 10:53:44;;;;;;;4.38;1.40;;;;;;;39.23;13.45;101008.47;5051723;28;19951;-67
2021/05/11 10:56:33;;;;;;;;;;;;;;;39.82;13.10;101004.91;5067066;28;20048;-67
2021/05/11 11:04:47;;;;;;;39.03;7.57;;;;;;;38.86;14.14;100982.50;5048969;28;20140;-69
2021/05/11 11:07:14;;;;;;;12.68;2.15;;;;;;;38.67;14.16;100981.06;5068699;28;20144;-67
2021/05/11 11:09:53;;;;;;;32.80;5.10;;;;;;;38.73;14.07;100969.25;5068616;28;20416;-69
2021/05/11 11:12:21;;;;;;;20.45;4.00;;;;;;;38.02;14.26;100957.38;5066917;28;20127;-69
2021/05/11 11:14:47;;;;;;;9.65;1.60;;;;;;;37.23;14.67;100972.13;5034840;28;20138;-68
2021/05/11 11:17:15;;;;;;;6.00;1.40;;;;;;;37.67;14.36;100970.75;5069559;28;20492;-68
2021/05/11 11:19:50;;;;;;;12.05;1.83;;;;;;;36.98;14.70;100956.53;5067925;28;20036;-67
2021/05/11 11:25:02;;;;;;;4.78;1.30;;;;;;;36.47;15.41;100947.38;5049292;28;20044;-70
2021/05/11 11:27:33;;;;;;;8.27;1.75;;;;;;;35.99;15.52;100943.53;5051243;28;20497;-70
2021/05/11 11:30:01;;;;;;;4.20;1.10;;;;;;;36.17;16.07;100933.22;5068196;28;20094;-68
2021/05/11 11:32:29;;;;;;;23.00;3.67;;;;;;;35.94;15.67;100940.34;5049616;28;20287;-68
2021/05/11 11:34:56;;;;;;;12.27;1.38;;;;;;;34.91;16.14;100942.09;5067930;28;20044;-69
2021/05/11 11:37:24;;;;;;;3.60;1.30;;;;;;;34.80;16.69;100935.94;5068112;28;20044;-69
2021/05/11 11:39:52;;;;;;;8.00;1.30;;;;;;;34.16;16.94;100919.47;5034406;28;20041;-73
2021/05/11 11:42:25;;;;;;;9.98;1.52;;;;;;;34.55;17.07;100931.16;5067426;28;20427;-69
2021/05/11 11:45:28;;;;;;;8.48;1.73;;;;;;;33.90;17.27;100923.97;5068386;28;20090;-70
2021/05/11 11:47:57;;;;;;;19.20;1.80;;;;;;;33.81;17.86;100933.06;5067889;28;20058;-68
2021/05/11 11:50:23;;;;;;;11.70;1.55;;;;;;;33.21;18.40;100925.22;5067930;28;20052;-69
2021/05/11 11:53:01;;;;;;;5.82;1.00;;;;;;;32.47;18.51;100896.53;5049288;28;20072;-68
2021/05/11 11:58:06;;;;;;;12.05;2.47;;;;;;;32.23;18.54;100920.75;5067240;28;20424;-70
2021/05/11 12:00:35;;;;;;;16.80;2.80;;;;;;;32.44;18.53;100915.19;5050599;28;20052;-66
2021/05/11 12:03:05;;;;;;;19.50;2.60;;;;;;;32.47;18.65;100913.03;5066258;28;20040;-66
2021/05/11 12:05:50;;;;;;;7.63;1.50;;;;;;;32.60;19.11;100915.50;5067014;28;20419;-68
2021/05/11 12:08:21;;;;;;;6.28;1.25;;;;;;;32.50;18.92;100899.00;5067146;28;20132;-67
2021/05/11 12:10:54;;;;;;;5.20;1.33;;;;;;;32.26;18.62;100914.97;5068559;28;20435;-67
2021/05/11 12:13:25;;;;;;;8.20;1.73;;;;;;;32.21;19.40;100903.56;5067169;28;20532;-67
2021/05/11 12:16:28;;;;;;;7.13;1.57;;;;;;;32.23;18.78;100903.41;5067158;28;20040;-66
2021/05/11 12:19:18;;;;;;;9.63;1.50;;;;;;;31.85;19.86;100906.03;4986817;28;20282;-66
2021/05/11 12:22:03;;;;;;;7.32;1.30;;;;;;;31.27;20.35;100882.00;4968350;28;20054;-67
2021/05/11 12:24:34;;;;;;;7.55;1.25;;;;;;;30.88;20.63;100888.19;4953923;28;20088;-65
2021/05/11 12:27:15;;;;;;;4.40;1.55;;;;;;;30.94;20.55;100872.09;4984569;28;20112;-69
2021/05/11 12:30:09;;;;;;;10.25;1.60;;;;;;;30.78;20.67;100888.13;4986913;28;20050;-67
2021/05/11 12:32:36;;;;;;;6.80;1.17;;;;;;;30.56;20.85;100885.44;4985830;28;20153;-67
2021/05/11 12:35:11;;;;;;;5.28;1.80;;;;;;;30.93;20.29;100880.44;4986213;28;20249;-68
2021/05/11 12:37:55;;;;;;;9.32;1.50;;;;;;;31.25;20.34;100890.34;4953734;28;20053;-69
2021/05/11 12:40:31;;;;;;;7.70;1.77;;;;;;;31.21;20.86;100882.53;4986542;28;20054;-67
2021/05/11 12:43:01;;;;;;;7.13;1.58;;;;;;;31.16;20.90;100884.81;4986060;28;20125;-70
2021/05/11 12:45:29;;;;;;;14.90;1.42;;;;;;;31.14;20.87;100873.09;4985123;28;20117;-70
2021/05/11 12:48:04;;;;;;;9.52;1.55;;;;;;;30.83;20.47;100855.72;4986376;28;20108;-67
2021/05/11 12:50:34;;;;;;;5.18;1.45;;;;;;;31.16;20.90;100874.69;4969203;28;20501;-71
2021/05/11 12:53:27;;;;;;;9.93;1.70;;;;;;;31.21;20.70;100877.88;5032222;28;20060;-69
2021/05/11 12:56:06;;;;;;;7.13;1.75;;;;;;;30.60;21.42;100880.53;5066306;28;20127;-66
2021/05/11 13:01:31;;;;;;;10.80;1.50;;;;;;;30.51;21.16;100886.81;5066683;28;20093;-66
2021/05/11 13:04:52;;;;;;;12.30;1.70;;;;;;;30.56;21.23;100871.72;5049614;28;20083;-67
2021/05/11 13:22:42;;;;;;;7.47;1.20;;;;;;;29.54;22.44;100852.94;5065346;28;20067;-68
2021/05/11 13:25:23;;;;;;;4.82;1.58;;;;;;;29.63;22.53;100870.53;5067099;28;20049;-66
2021/05/11 13:28:00;;;;;;;7.72;1.45;;;;;;;29.81;22.51;100874.50;5066343;28;20409;-66
2021/05/11 13:35:36;;;;;;;6.97;1.30;;;;;;;29.65;22.78;100869.41;5063359;28;20067;-66
2021/05/11 13:38:04;;;;;;;7.18;1.20;;;;;;;29.70;22.78;100867.16;5065740;28;20127;-66
2021/05/11 13:40:30;;;;;;;4.93;1.20;;;;;;;29.49;22.34;100868.88;5049042;28;20037;-67
2021/05/11 13:42:56;;;;;;;4.43;1.33;;;;;;;29.67;22.41;100872.00;5063835;28;20380;-67
2021/05/11 13:45:24;;;;;;;5.38;1.55;;;;;;;29.81;22.84;100863.56;5065464;28;20063;-67
2021/05/11 13:48:15;;;;;;;8.82;1.42;;;;;;;29.42;22.90;100853.94;5049001;28;20044;-66
2021/05/11 13:50:52;;;;;;;7.93;1.45;;;;;;;29.19;23.23;100850.31;5048033;28;20028;-67
2021/05/11 13:53:20;;;;;;;9.75;1.48;;;;;;;29.14;23.02;100866.22;5065685;28;20119;-66
2021/05/11 14:01:57;;;;;;;10.65;2.97;;;;;;;28.93;23.35;100853.34;5004782;28;20054;-66
2021/05/11 14:04:17;;;;;;;5.75;1.50;;;;;;;28.86;23.97;100852.97;5003199;28;20149;-67
2021/05/11 14:06:43;;;;;;;5.55;1.45;;;;;;;28.44;24.06;100847.22;5003484;28;20066;-66
2021/05/11 14:09:09;;;;;;;8.50;1.95;;;;;;;28.57;23.83;100850.75;4971946;28;20410;-66
2021/05/11 14:11:36;;;;;;;6.43;1.77;;;;;;;28.69;23.95;100855.25;5004890;28;20513;-65
2021/05/11 14:14:03;;;;;;;14.05;3.08;;;;;;;28.60;24.19;100859.56;4986222;28;20045;-66
2021/05/11 14:16:29;;;;;;;13.63;2.60;;;;;;;28.62;24.16;100857.59;5004699;28;20045;-66
2021/05/11 14:18:55;;;;;;;8.25;2.33;;;;;;;28.61;24.40;100857.72;4972327;28;20136;-66
2021/05/11 14:21:22;;;;;;;7.20;1.70;;;;;;;28.38;24.35;100850.38;5004679;28;20153;-67
2021/05/11 14:23:48;;;;;;;7.65;2.22;;;;;;;28.33;24.70;100839.84;5002565;28;20081;-66
2021/05/11 14:26:14;;;;;;;6.80;2.15;;;;;;;28.30;24.78;100848.25;5007899;28;20165;-65
2021/05/11 14:28:40;;;;;;;15.90;1.92;;;;;;;27.96;24.95;100843.56;4991884;28;20145;-66
2021/05/11 14:31:06;;;;;;;8.18;2.50;;;;;;;27.93;24.99;100834.75;5023202;28;20050;-69
2021/05/11 14:33:32;;;;;;;8.10;2.25;;;;;;;27.83;24.99;100834.56;5015452;28;20060;-65
2021/05/11 14:35:58;;;;;;;10.45;2.53;;;;;;;27.70;25.10;100841.88;5049405;28;20151;-68
2021/05/11 14:38:24;;;;;;;9.02;1.85;;;;;;;27.62;25.34;100835.25;5048908;28;20417;-66
2021/05/11 14:40:52;;;;;;;10.93;2.17;;;;;;;27.47;25.29;100837.22;5047325;28;20131;-70
2021/05/11 14:43:19;;;;;;;9.43;2.33;;;;;;;27.26;25.83;100840.63;5048874;28;20041;-69
2021/05/11 14:45:45;;;;;;;15.88;2.15;;;;;;;27.12;25.89;100837.97;5049069;28;20044;-71
2021/05/11 14:48:11;;;;;;;6.70;2.20;;;;;;;27.06;26.18;100825.69;5048466;28;20127;-72
2021/05/11 14:50:39;;;;;;;11.23;1.95;;;;;;;27.02;26.14;100826.00;5048613;28;20047;-68
2021/05/11 14:53:05;;;;;;;13.27;2.35;;;;;;;26.86;26.17;100828.06;5032023;28;20041;-66
2021/05/11 14:55:31;;;;;;;7.55;2.28;;;;;;;26.82;26.72;100819.22;5015242;28;20036;-67
2021/05/11 14:57:57;;;;;;;7.40;2.20;;;;;;;26.77;26.50;100828.72;5031414;28;20037;-66
2021/05/11 15:00:59;;;;;;;15.73;2.72;;;;;;;26.59;26.78;100810.91;5067036;28;20051;-66
2021/05/11 15:03:34;;;;;;;5.93;2.55;;;;;;;26.40;27.02;100799.53;5011912;28;20104;-78
2021/05/11 15:06:27;;;;;;;13.15;3.15;;;;;;;26.46;27.40;100821.72;5009435;28;20132;-73
2021/05/11 15:08:53;;;;;;;8.18;2.55;;;;;;;26.35;27.13;100842.50;5006218;28;20081;-70
2021/05/11 15:11:20;;;;;;;6.53;2.88;;;;;;;26.23;27.48;100829.72;4990567;28;20034;-77
2021/05/11 15:13:51;;;;;;;5.60;2.35;;;;;;;26.18;27.34;100838.19;5005456;28;20050;-73
2021/05/11 15:20:45;;;;;;;8.23;2.25;;;;;;;25.60;27.39;100813.09;4813525;29;20570;-73
2021/05/11 15:23:37;;;;;;;14.48;2.42;;;;;;;25.56;27.87;100845.00;4820463;29;20072;-73
2021/05/11 15:26:34;;;;;;;11.73;2.35;;;;;;;25.14;28.22;100787.09;4836311;29;20110;-72
2021/05/11 15:29:12;;;;;;;11.20;2.47;;;;;;;25.51;27.93;100844.44;4811252;29;20103;-78
2021/05/11 15:31:48;;;;;;;;;;;;;;;;;;;;;
2021/05/11 15:35:49;;;;;;;10.15;2.53;;;;;;;25.29;28.30;100837.75;4836412;29;20388;-77
2021/05/11 15:38:54;;;;;;;6.95;2.00;;;;;;;24.92;28.22;100813.84;4780883;29;20058;-78
2021/05/11 15:45:11;;;;;;;10.20;2.40;;;;;;;24.87;28.77;100834.97;4888273;29;20052;-75
2021/05/11 15:47:38;;;;;;;17.65;2.90;;;;;;;24.65;28.75;100810.97;4921682;28;20054;-76
2021/05/11 15:50:05;;;;;;;14.57;2.83;;;;;;;24.80;29.20;100849.91;4935733;28;20186;-83
2021/05/11 15:52:37;;;;;;;12.23;2.20;;;;;;;24.80;29.07;100855.31;4951961;28;20570;-77
2021/05/11 15:55:09;;;;;;;11.95;2.42;;;;;;;24.69;29.37;100853.22;4936141;28;20054;-76
2021/05/11 15:57:36;;;;;;;12.70;3.13;;;;;;;24.50;29.53;100811.91;5027451;28;20103;-72
2021/05/11 16:00:09;;;;;;;6.10;2.38;;;;;;;24.56;29.61;100846.78;5057498;28;20401;-70
2021/05/11 16:02:40;;;;;;;5.53;2.17;;;;;;;24.49;29.55;100848.09;5050586;28;20124;-63
2021/05/11 16:05:13;;;;;;;6.93;2.20;;;;;;;24.27;29.91;100814.22;5068726;28;20044;-69
2021/05/11 16:07:52;;;;;;;17.75;2.47;;;;;;;24.34;30.05;100840.91;5014592;23;20058;-68
2021/05/11 16:10:18;;;;;;;6.88;1.92;;;;;;;24.29;30.07;100845.69;4986757;28;20136;-67